Time;durP1;ratioP1;P1;durP2;ratioP2;P2;SDS_P1;SDS_P2;PMS_P1;PMS_P2;Temp;Humidity;BMP_temperature;BMP_pressure;BME280_temperature;BME280_humidity;BME280_pressure;Samples;Min_cycle;Max_cycle;Signal;HPM_P1;HPM_P2
2022/01/12 00:01:20;;;;;;;3.37;2.50;;;;;;;;;;4924294;29;20186;-78
2022/01/12 00:06:15;;;;;;;2.73;2.20;;;;;;;;;;4955622;23;20263;-78
2022/01/12 00:08:41;;;;;;;2.87;2.23;;;;;;;;;;4921538;29;20172;-78
2022/01/12 00:11:08;;;;;;;3.80;2.70;;;;;;;;;;4921379;29;20328;-78
2022/01/12 00:13:34;;;;;;;2.63;2.33;;;;;;;;;;4905484;29;20185;-77
2022/01/12 00:16:02;;;;;;;4.10;2.63;;;;;;;;;;4921082;29;20198;-78
2022/01/12 00:18:28;;;;;;;3.37;2.60;;;;;;;;;;4921037;29;20335;-77
2022/01/12 00:20:54;;;;;;;3.43;2.63;;;;;;;;;;4921501;29;20182;-77
2022/01/12 00:23:21;;;;;;;3.93;2.80;;;;;;;;;;4905496;29;20194;-78
2022/01/12 00:26:00;;;;;;;3.50;2.87;;;;;;;;;;4920730;29;20630;-77
2022/01/12 00:33:57;;;;;;;3.77;2.83;;;;;;;;;;4937714;29;20236;-76
2022/01/12 00:36:23;;;;;;;3.37;2.70;;;;;;;;;;4920087;29;20247;-76
2022/01/12 00:38:49;;;;;;;2.73;2.50;;;;;;;;;;4919814;29;20183;-76
2022/01/12 00:41:17;;;;;;;3.63;2.90;;;;;;;;;;4919686;29;20744;-76
2022/01/12 00:43:45;;;;;;;3.77;2.77;;;;;;;;;;4919409;29;20203;-76
2022/01/12 00:46:12;;;;;;;3.37;2.70;;;;;;;;;;4936581;29;20202;-76
2022/01/12 00:48:38;;;;;;;3.90;2.90;;;;;;;;;;4919535;29;20182;-76
2022/01/12 00:51:05;;;;;;;3.30;2.80;;;;;;;;;;4903834;29;20215;-76
2022/01/12 00:53:31;;;;;;;3.17;2.87;;;;;;;;;;4919495;29;20187;-76
2022/01/12 00:55:57;;;;;;;4.00;2.97;;;;;;;;;;4919468;29;20199;-76
2022/01/12 00:58:23;;;;;;;4.07;3.10;;;;;;;;;;4919500;29;20275;-76
2022/01/12 01:00:49;;;;;;;4.13;2.77;;;;;;;;;;4919364;29;20227;-76
2022/01/12 01:03:15;;;;;;;3.43;2.57;;;;;;;;;;4919421;29;20189;-75
2022/01/12 01:05:42;;;;;;;3.67;2.70;;;;;;;;;;4919285;29;20257;-76
2022/01/12 01:08:09;;;;;;;5.33;3.03;;;;;;;;;;4919280;29;20188;-76
2022/01/12 01:10:48;;;;;;;3.97;2.77;;;;;;;;;;4918892;29;20291;-75
2022/01/12 01:13:15;;;;;;;3.63;3.00;;;;;;;;;;4920919;29;20177;-75
2022/01/12 01:26:26;;;;;;;4.37;3.17;;;;;;;;;;4921938;29;20649;-76
2022/01/12 01:28:52;;;;;;;3.30;2.50;;;;;;;;;;4903177;29;20190;-76
2022/01/12 01:31:20;;;;;;;3.47;2.80;;;;;;;;;;4918613;29;20203;-76
2022/01/12 01:33:46;;;;;;;3.47;2.80;;;;;;;;;;4918588;29;20190;-76
2022/01/12 01:36:13;;;;;;;3.07;2.70;;;;;;;;;;4903168;29;20265;-76
2022/01/12 01:38:39;;;;;;;3.23;2.40;;;;;;;;;;4903267;29;20183;-75
2022/01/12 01:41:06;;;;;;;4.07;3.20;;;;;;;;;;4918725;29;20274;-76
2022/01/12 01:54:14;;;;;;;3.40;2.70;;;;;;;;;;4921069;29;20342;-76
2022/01/12 01:56:40;;;;;;;4.43;2.97;;;;;;;;;;4903088;29;20190;-76
2022/01/12 01:59:06;;;;;;;3.97;2.80;;;;;;;;;;4902914;29;20187;-75
2022/01/12 02:01:32;;;;;;;4.63;2.77;;;;;;;;;;4918354;29;20796;-76
2022/01/12 02:04:02;;;;;;;3.57;2.67;;;;;;;;;;4902274;29;20197;-76
2022/01/12 02:06:28;;;;;;;3.30;2.80;;;;;;;;;;4903178;29;20198;-76
2022/01/12 02:08:54;;;;;;;3.70;2.67;;;;;;;;;;4918315;29;20206;-76
2022/01/12 02:11:27;;;;;;;3.80;2.63;;;;;;;;;;4918555;29;20264;-75
2022/01/12 02:13:53;;;;;;;3.37;2.53;;;;;;;;;;4902304;29;20282;-76
2022/01/12 02:16:25;;;;;;;3.30;2.63;;;;;;;;;;4918429;29;20268;-76
2022/01/12 02:40:29;;;;;;;3.20;2.30;;;;;;;;;;4919475;29;20178;-75
2022/01/12 02:53:42;;;;;;;3.13;2.57;;;;;;;;;;4935323;29;20549;-76
2022/01/12 02:56:09;;;;;;;3.03;2.47;;;;;;;;;;4903508;29;20198;-75
2022/01/12 02:58:35;;;;;;;2.40;2.20;;;;;;;;;;4918145;29;20188;-75
2022/01/12 03:03:49;;;;;;;2.43;1.93;;;;;;;;;;4921113;29;20189;-75
2022/01/12 03:06:19;;;;;;;2.60;2.30;;;;;;;;;;4902868;29;20200;-76
2022/01/12 03:08:45;;;;;;;2.90;2.20;;;;;;;;;;4918370;29;20205;-75
2022/01/12 03:11:12;;;;;;;2.70;2.20;;;;;;;;;;4918184;29;20221;-75
2022/01/12 03:13:39;;;;;;;3.07;2.40;;;;;;;;;;4902225;29;20180;-75
2022/01/12 03:16:13;;;;;;;2.70;2.17;;;;;;;;;;4917769;29;20198;-75
2022/01/12 03:18:40;;;;;;;2.83;2.20;;;;;;;;;;4917923;29;20204;-74
2022/01/12 03:21:06;;;;;;;2.73;2.33;;;;;;;;;;4918023;29;20269;-75
2022/01/12 03:23:32;;;;;;;3.10;2.63;;;;;;;;;;4917465;29;20183;-75
2022/01/12 03:25:59;;;;;;;3.00;2.50;;;;;;;;;;4917912;29;20584;-75
2022/01/12 03:28:25;;;;;;;3.80;3.00;;;;;;;;;;4917749;29;20628;-75
2022/01/12 03:31:10;;;;;;;3.60;2.37;;;;;;;;;;4917721;29;20206;-75
2022/01/12 03:38:52;;;;;;;2.93;2.13;;;;;;;;;;4923726;29;20229;-75
2022/01/12 03:41:18;;;;;;;2.27;1.90;;;;;;;;;;4921236;29;20192;-75
2022/01/12 03:43:45;;;;;;;1.80;1.70;;;;;;;;;;4905260;29;20185;-76
2022/01/12 03:46:11;;;;;;;2.50;1.70;;;;;;;;;;4920968;29;20297;-75
2022/01/12 03:48:37;;;;;;;2.10;1.60;;;;;;;;;;4921027;29;20182;-75
2022/01/12 03:51:04;;;;;;;2.37;1.80;;;;;;;;;;4905063;29;20216;-75
2022/01/12 03:53:30;;;;;;;2.80;2.17;;;;;;;;;;4904863;29;20258;-75
2022/01/12 03:55:56;;;;;;;3.30;2.20;;;;;;;;;;4905273;29;20656;-75
2022/01/12 03:58:22;;;;;;;2.70;2.20;;;;;;;;;;4905006;29;20183;-75
2022/01/12 04:00:48;;;;;;;2.53;2.10;;;;;;;;;;4920702;29;20183;-75
2022/01/12 04:03:15;;;;;;;2.53;2.00;;;;;;;;;;4905012;29;20189;-75
2022/01/12 04:08:26;;;;;;;2.50;2.10;;;;;;;;;;4937789;29;20253;-75
2022/01/12 04:10:53;;;;;;;2.40;1.93;;;;;;;;;;4904616;29;20225;-75
2022/01/12 04:13:25;;;;;;;2.93;2.40;;;;;;;;;;4920319;29;20198;-75
2022/01/12 04:15:53;;;;;;;2.87;2.13;;;;;;;;;;4905038;29;20208;-75
2022/01/12 04:18:19;;;;;;;3.50;2.23;;;;;;;;;;4920302;29;20174;-75
2022/01/12 04:20:46;;;;;;;3.30;2.33;;;;;;;;;;4920356;29;20240;-75
2022/01/12 04:23:19;;;;;;;2.60;2.00;;;;;;;;;;4920452;29;20277;-75
2022/01/12 04:25:46;;;;;;;3.93;2.30;;;;;;;;;;4905099;29;20347;-76
2022/01/12 04:28:12;;;;;;;3.83;2.70;;;;;;;;;;4904359;29;20209;-75
2022/01/12 04:30:38;;;;;;;3.27;2.40;;;;;;;;;;4919743;29;20581;-76
2022/01/12 04:33:05;;;;;;;3.27;2.80;;;;;;;;;;4904304;29;20638;-75
2022/01/12 04:35:34;;;;;;;4.80;2.80;;;;;;;;;;4919892;29;20202;-75
2022/01/12 04:38:01;;;;;;;4.50;2.60;;;;;;;;;;4919981;29;20262;-75
2022/01/12 04:40:27;;;;;;;4.43;2.70;;;;;;;;;;4919915;29;20182;-75
2022/01/12 04:42:54;;;;;;;4.30;2.80;;;;;;;;;;4904260;29;20197;-75
2022/01/12 04:50:21;;;;;;;3.17;2.80;;;;;;;;;;4921084;29;20211;-76
2022/01/12 04:52:47;;;;;;;3.70;2.23;;;;;;;;;;4904230;29;20236;-76
2022/01/12 04:55:13;;;;;;;2.83;2.50;;;;;;;;;;4919737;29;20202;-76
2022/01/12 04:57:39;;;;;;;3.03;2.70;;;;;;;;;;4904297;29;20214;-75
2022/01/12 05:00:15;;;;;;;3.93;2.83;;;;;;;;;;4904165;29;20226;-76
2022/01/12 05:13:31;;;;;;;3.73;2.90;;;;;;;;;;4936738;29;20212;-75
2022/01/12 05:15:58;;;;;;;5.80;3.37;;;;;;;;;;4919708;29;20203;-76
2022/01/12 05:18:24;;;;;;;3.80;3.17;;;;;;;;;;4919625;29;20178;-75
2022/01/12 05:20:50;;;;;;;5.10;3.30;;;;;;;;;;4919601;29;20193;-75
2022/01/12 05:23:16;;;;;;;4.17;3.07;;;;;;;;;;4919366;29;20214;-75
2022/01/12 05:25:46;;;;;;;5.20;3.20;;;;;;;;;;4919236;29;20212;-75
2022/01/12 05:28:12;;;;;;;3.97;2.93;;;;;;;;;;4904044;29;20184;-75
2022/01/12 05:30:38;;;;;;;4.00;3.10;;;;;;;;;;4903332;29;20205;-75
2022/01/12 05:33:05;;;;;;;4.63;3.13;;;;;;;;;;4903695;29;20193;-75
2022/01/12 05:35:33;;;;;;;4.40;3.20;;;;;;;;;;4919077;29;20207;-76
2022/01/12 05:38:00;;;;;;;3.93;2.80;;;;;;;;;;4903922;29;20193;-74
2022/01/12 05:40:26;;;;;;;4.43;3.13;;;;;;;;;;4903787;29;20181;-75
2022/01/12 05:42:53;;;;;;;4.13;2.93;;;;;;;;;;4903250;29;20242;-75
2022/01/12 05:45:21;;;;;;;3.43;2.90;;;;;;;;;;4918643;29;20203;-75
2022/01/12 05:50:13;;;;;;;4.93;2.90;;;;;;;;;;4936234;29;20760;-75
2022/01/12 05:52:40;;;;;;;3.43;2.77;;;;;;;;;;4919018;29;20272;-76
2022/01/12 05:55:07;;;;;;;4.40;3.30;;;;;;;;;;4918321;29;20197;-76
2022/01/12 05:57:33;;;;;;;4.87;3.30;;;;;;;;;;4902804;29;20186;-75
2022/01/12 06:00:00;;;;;;;4.93;3.20;;;;;;;;;;4901856;29;20280;-76
2022/01/12 06:02:26;;;;;;;3.43;2.87;;;;;;;;;;4918516;29;20611;-75
2022/01/12 06:04:52;;;;;;;4.27;2.57;;;;;;;;;;4954028;23;20235;-77
2022/01/12 06:07:18;;;;;;;3.70;2.70;;;;;;;;;;4915084;29;20180;-77
2022/01/12 06:09:44;;;;;;;3.80;3.10;;;;;;;;;;4915643;29;20175;-79
2022/01/12 06:12:11;;;;;;;5.30;3.30;;;;;;;;;;4900024;29;20183;-79
2022/01/12 06:14:37;;;;;;;4.10;3.27;;;;;;;;;;4915097;29;20225;-78
2022/01/12 06:17:03;;;;;;;5.07;3.27;;;;;;;;;;4900160;29;20254;-79
2022/01/12 06:19:29;;;;;;;4.93;3.47;;;;;;;;;;4916585;29;20176;-79
2022/01/12 06:21:55;;;;;;;3.60;2.80;;;;;;;;;;4900903;29;20183;-79
2022/01/12 06:24:21;;;;;;;3.90;3.10;;;;;;;;;;4915919;29;20259;-79
2022/01/12 06:26:47;;;;;;;4.53;3.00;;;;;;;;;;4916028;29;20266;-80
2022/01/12 06:32:01;;;;;;;4.20;3.30;;;;;;;;;;4896223;29;20215;-78
2022/01/12 06:34:27;;;;;;;4.10;3.50;;;;;;;;;;4899476;29;20187;-79
2022/01/12 06:36:53;;;;;;;3.17;2.70;;;;;;;;;;4899177;29;20185;-78
2022/01/12 06:39:20;;;;;;;3.10;2.77;;;;;;;;;;4916020;29;20645;-78
2022/01/12 06:41:46;;;;;;;3.47;2.70;;;;;;;;;;4915413;29;20179;-80
2022/01/12 06:44:14;;;;;;;3.30;2.83;;;;;;;;;;4915292;29;20228;-78
2022/01/12 06:46:40;;;;;;;3.40;2.57;;;;;;;;;;4900693;29;20334;-79
2022/01/12 06:49:06;;;;;;;3.47;3.00;;;;;;;;;;4916178;29;20184;-79
2022/01/12 06:51:32;;;;;;;3.43;2.87;;;;;;;;;;4900505;29;20301;-83
2022/01/12 06:53:58;;;;;;;3.53;3.17;;;;;;;;;;4900573;29;20202;-83
2022/01/12 06:56:24;;;;;;;3.53;2.83;;;;;;;;;;4900445;29;20206;-81
2022/01/12 06:58:50;;;;;;;3.80;2.90;;;;;;;;;;4900396;29;20187;-81
2022/01/12 07:01:16;;;;;;;3.67;2.97;;;;;;;;;;4901394;29;20189;-83
2022/01/12 07:03:42;;;;;;;3.70;3.03;;;;;;;;;;4915200;29;20272;-81
2022/01/12 07:06:08;;;;;;;3.30;3.00;;;;;;;;;;4915574;29;20217;-82
2022/01/12 07:08:36;;;;;;;4.33;3.40;;;;;;;;;;4900432;29;20227;-82
2022/01/12 07:11:02;;;;;;;4.43;3.20;;;;;;;;;;4918871;29;20212;-82
2022/01/12 07:13:28;;;;;;;3.80;2.97;;;;;;;;;;4920191;29;20177;-82
2022/01/12 07:15:55;;;;;;;4.43;3.17;;;;;;;;;;4920973;29;20220;-82
2022/01/12 07:18:23;;;;;;;4.33;3.13;;;;;;;;;;4920625;29;20187;-81
2022/01/12 07:20:49;;;;;;;3.50;2.90;;;;;;;;;;4905047;29;20188;-82
2022/01/12 07:23:15;;;;;;;3.73;3.10;;;;;;;;;;4919126;29;20645;-82
2022/01/12 07:25:41;;;;;;;3.40;2.93;;;;;;;;;;4919003;29;20211;-81
2022/01/12 07:28:07;;;;;;;3.73;2.80;;;;;;;;;;4903543;29;20679;-82
2022/01/12 07:30:33;;;;;;;3.80;2.87;;;;;;;;;;4919528;29;20204;-81
2022/01/12 07:32:59;;;;;;;3.37;2.70;;;;;;;;;;4903643;29;20180;-81
2022/01/12 07:35:26;;;;;;;4.50;3.13;;;;;;;;;;4904184;29;20229;-81
2022/01/12 07:37:52;;;;;;;5.57;3.70;;;;;;;;;;4920541;29;20180;-82
2022/01/12 07:40:18;;;;;;;5.37;3.33;;;;;;;;;;4903994;29;20183;-82
2022/01/12 07:42:44;;;;;;;5.37;3.20;;;;;;;;;;4920016;29;20216;-82
2022/01/12 07:45:11;;;;;;;5.13;3.63;;;;;;;;;;4919005;29;20203;-82
2022/01/12 07:47:37;;;;;;;4.70;3.50;;;;;;;;;;4919098;29;20561;-81
2022/01/12 07:50:05;;;;;;;4.30;3.20;;;;;;;;;;4918619;29;20283;-80
2022/01/12 07:52:31;;;;;;;4.63;3.43;;;;;;;;;;4917832;29;20222;-80
2022/01/12 07:54:57;;;;;;;4.57;2.97;;;;;;;;;;4901795;29;20543;-81
2022/01/12 07:57:23;;;;;;;205.47;189.30;;;;;;;;;;4902427;29;20184;-81
2022/01/12 07:59:49;;;;;;;16.53;15.03;;;;;;;;;;4903325;29;20237;-81
2022/01/12 08:02:15;;;;;;;6.50;5.90;;;;;;;;;;4921173;29;20200;-81
2022/01/12 08:04:41;;;;;;;6.93;3.87;;;;;;;;;;4920316;29;20303;-81
2022/01/12 08:07:10;;;;;;;3.90;3.00;;;;;;;;;;4904884;29;20271;-81
2022/01/12 08:09:36;;;;;;;5.10;3.87;;;;;;;;;;4920109;29;20191;-81
2022/01/12 08:12:03;;;;;;;4.67;3.50;;;;;;;;;;4919697;29;20210;-81
2022/01/12 08:14:29;;;;;;;4.80;3.53;;;;;;;;;;4904059;29;20431;-81
2022/01/12 08:16:55;;;;;;;4.93;3.93;;;;;;;;;;4903689;29;20188;-81
2022/01/12 08:19:22;;;;;;;5.97;4.50;;;;;;;;;;4903145;29;20192;-81
2022/01/12 08:21:48;;;;;;;7.37;4.83;;;;;;;;;;4902969;29;20187;-81
2022/01/12 08:24:16;;;;;;;6.50;4.47;;;;;;;;;;4918583;29;20194;-81
2022/01/12 08:26:42;;;;;;;6.13;4.97;;;;;;;;;;4919071;29;20642;-81
2022/01/12 08:29:14;;;;;;;6.20;4.97;;;;;;;;;;4903119;29;20190;-81
2022/01/12 08:31:40;;;;;;;6.60;4.83;;;;;;;;;;4904085;29;20226;-80
2022/01/12 08:34:06;;;;;;;7.17;4.73;;;;;;;;;;4903006;29;20195;-81
2022/01/12 08:36:32;;;;;;;5.90;4.50;;;;;;;;;;4918055;29;20210;-81
2022/01/12 08:38:59;;;;;;;6.70;4.50;;;;;;;;;;4918549;29;20243;-81
2022/01/12 08:41:26;;;;;;;7.33;5.40;;;;;;;;;;4919574;29;20171;-81
2022/01/12 08:43:52;;;;;;;8.07;5.10;;;;;;;;;;4918115;29;20237;-80
2022/01/12 08:46:18;;;;;;;6.33;4.77;;;;;;;;;;4918380;29;20553;-81
2022/01/12 08:48:44;;;;;;;6.20;4.73;;;;;;;;;;4902940;29;20198;-81
2022/01/12 08:51:10;;;;;;;6.20;5.10;;;;;;;;;;4917825;29;20689;-80
2022/01/12 08:53:36;;;;;;;7.90;5.20;;;;;;;;;;4902494;29;20206;-80
2022/01/12 08:56:03;;;;;;;6.97;4.60;;;;;;;;;;4918104;29;20206;-80
2022/01/12 08:58:29;;;;;;;6.90;4.60;;;;;;;;;;4918217;29;20775;-81
2022/01/12 09:00:57;;;;;;;6.97;4.93;;;;;;;;;;4918569;29;20206;-80
2022/01/12 09:03:23;;;;;;;6.67;5.03;;;;;;;;;;4903522;29;20191;-80
2022/01/12 09:05:50;;;;;;;6.57;5.13;;;;;;;;;;4904264;29;20232;-80
2022/01/12 09:08:16;;;;;;;8.30;5.27;;;;;;;;;;4919787;29;20195;-80
2022/01/12 09:10:42;;;;;;;8.60;5.60;;;;;;;;;;4920057;29;20214;-80
2022/01/12 09:13:08;;;;;;;5.33;4.40;;;;;;;;;;4904041;29;20212;-80
2022/01/12 09:15:34;;;;;;;5.80;4.47;;;;;;;;;;4903006;29;20207;-80
2022/01/12 09:18:00;;;;;;;6.73;4.67;;;;;;;;;;4903695;29;20661;-80
2022/01/12 09:20:28;;;;;;;4.30;3.70;;;;;;;;;;4919624;29;20277;-80
2022/01/12 09:22:54;;;;;;;5.53;3.53;;;;;;;;;;4921303;29;20228;-80
2022/01/12 09:25:20;;;;;;;4.43;3.63;;;;;;;;;;4918492;29;20206;-80
2022/01/12 09:27:46;;;;;;;6.27;4.30;;;;;;;;;;4918739;29;20223;-80
2022/01/12 09:30:13;;;;;;;5.20;4.00;;;;;;;;;;4918266;29;20214;-80
2022/01/12 09:32:39;;;;;;;5.03;4.03;;;;;;;;;;4918241;29;20172;-80
2022/01/12 09:35:06;;;;;;;6.27;4.20;;;;;;;;;;4917766;29;20202;-80
2022/01/12 09:37:32;;;;;;;5.20;4.23;;;;;;;;;;4919091;29;20179;-80
2022/01/12 09:39:58;;;;;;;5.80;4.40;;;;;;;;;;4919287;29;20678;-80
2022/01/12 09:42:24;;;;;;;4.60;3.97;;;;;;;;;;4902980;29;20179;-80
2022/01/12 09:44:50;;;;;;;5.20;4.50;;;;;;;;;;4902821;29;20355;-80
2022/01/12 09:47:17;;;;;;;4.97;3.90;;;;;;;;;;4918972;29;20187;-80
2022/01/12 09:49:44;;;;;;;4.73;3.77;;;;;;;;;;4904098;29;20259;-80
2022/01/12 09:52:10;;;;;;;6.03;3.90;;;;;;;;;;4919023;29;20216;-80
2022/01/12 09:54:37;;;;;;;4.43;3.70;;;;;;;;;;4920060;29;20200;-80
2022/01/12 09:57:03;;;;;;;4.27;3.63;;;;;;;;;;4919106;29;20239;-80
2022/01/12 09:59:30;;;;;;;5.07;3.70;;;;;;;;;;4918314;29;20187;-80
2022/01/12 10:01:57;;;;;;;5.67;4.00;;;;;;;;;;4919917;29;20192;-80
2022/01/12 10:04:24;;;;;;;4.93;3.87;;;;;;;;;;4918809;29;20179;-79
2022/01/12 10:06:53;;;;;;;4.47;3.43;;;;;;;;;;4919934;29;20188;-80
2022/01/12 10:09:22;;;;;;;4.80;3.63;;;;;;;;;;4919279;29;20189;-80
2022/01/12 10:12:00;;;;;;;5.40;3.90;;;;;;;;;;4921559;29;20216;-80
2022/01/12 10:14:37;;;;;;;5.13;3.80;;;;;;;;;;4918443;29;20184;-80
2022/01/12 10:17:03;;;;;;;4.70;3.60;;;;;;;;;;4917192;29;20260;-80
2022/01/12 10:19:30;;;;;;;6.40;3.53;;;;;;;;;;4902080;29;20188;-80
2022/01/12 10:21:57;;;;;;;5.37;3.80;;;;;;;;;;4919397;29;20184;-80
2022/01/12 10:24:24;;;;;;;4.73;3.63;;;;;;;;;;4917822;29;20195;-80
2022/01/12 10:26:51;;;;;;;5.13;3.77;;;;;;;;;;4901736;29;20719;-80
2022/01/12 10:29:22;;;;;;;5.53;3.60;;;;;;;;;;4901717;29;20185;-80
2022/01/12 10:31:51;;;;;;;5.30;3.60;;;;;;;;;;4917227;29;20706;-79
2022/01/12 10:34:18;;;;;;;5.17;3.67;;;;;;;;;;4917927;29;20209;-80
2022/01/12 10:36:44;;;;;;;5.27;3.93;;;;;;;;;;4900762;29;20196;-80
2022/01/12 10:39:12;;;;;;;4.63;3.70;;;;;;;;;;4900774;29;20212;-79
2022/01/12 10:41:42;;;;;;;4.07;3.43;;;;;;;;;;4916221;29;20189;-80
2022/01/12 10:44:08;;;;;;;4.20;3.30;;;;;;;;;;4916125;29;20191;-80
2022/01/12 10:46:34;;;;;;;4.80;3.50;;;;;;;;;;4919578;29;20201;-80
2022/01/12 10:49:00;;;;;;;5.67;3.80;;;;;;;;;;4904828;29;20196;-80
2022/01/12 10:51:28;;;;;;;5.00;3.87;;;;;;;;;;4904679;29;20212;-80
2022/01/12 10:53:58;;;;;;;22.20;10.87;;;;;;;;;;4903966;29;20276;-79
2022/01/12 10:56:25;;;;;;;8.43;5.00;;;;;;;;;;4919704;29;20201;-80
2022/01/12 10:58:52;;;;;;;6.87;4.43;;;;;;;;;;4904745;29;20190;-80
2022/01/12 11:01:20;;;;;;;8.33;6.30;;;;;;;;;;4919882;29;20192;-80
2022/01/12 11:03:47;;;;;;;5.73;4.00;;;;;;;;;;4920044;29;20193;-79
2022/01/12 11:06:14;;;;;;;13.60;8.47;;;;;;;;;;4920139;29;20228;-80
2022/01/12 11:08:41;;;;;;;6.83;5.80;;;;;;;;;;4919893;29;20283;-80
2022/01/12 11:11:07;;;;;;;5.53;4.07;;;;;;;;;;4920226;29;20245;-79
2022/01/12 11:13:34;;;;;;;8.30;5.87;;;;;;;;;;4919948;29;20192;-80
2022/01/12 11:16:01;;;;;;;4.50;3.90;;;;;;;;;;4919819;29;20284;-80
2022/01/12 11:18:28;;;;;;;4.87;3.73;;;;;;;;;;4904469;29;20190;-80
2022/01/12 11:20:59;;;;;;;6.27;3.97;;;;;;;;;;4903811;29;20190;-80
2022/01/12 11:23:32;;;;;;;5.47;3.30;;;;;;;;;;4919368;29;20192;-80
2022/01/12 11:25:58;;;;;;;4.50;3.43;;;;;;;;;;4918933;29;20698;-80
2022/01/12 11:28:26;;;;;;;4.80;3.23;;;;;;;;;;4903958;29;20199;-80
2022/01/12 11:30:54;;;;;;;5.00;3.60;;;;;;;;;;4920618;29;20190;-80
2022/01/12 11:33:35;;;;;;;4.93;3.80;;;;;;;;;;4919465;29;20237;-80
2022/01/12 11:36:03;;;;;;;4.77;3.87;;;;;;;;;;4920168;29;20198;-80
2022/01/12 11:38:31;;;;;;;5.37;4.17;;;;;;;;;;4919665;29;20272;-80
2022/01/12 11:41:09;;;;;;;6.63;4.63;;;;;;;;;;4903268;29;20190;-79
2022/01/12 11:43:42;;;;;;;4.63;3.87;;;;;;;;;;4919658;29;20540;-79
2022/01/12 11:46:12;;;;;;;5.47;4.17;;;;;;;;;;4918212;29;20198;-80
2022/01/12 11:48:48;;;;;;;6.13;4.17;;;;;;;;;;4918445;29;20269;-80
2022/01/12 11:51:17;;;;;;;6.40;4.43;;;;;;;;;;4902782;29;20244;-80
2022/01/12 11:53:44;;;;;;;5.93;4.43;;;;;;;;;;4918336;29;20249;-79
2022/01/12 11:56:11;;;;;;;6.27;4.70;;;;;;;;;;4901950;29;20209;-79
2022/01/12 11:58:49;;;;;;;6.87;5.00;;;;;;;;;;4917414;29;20181;-80
2022/01/12 12:01:15;;;;;;;7.03;4.70;;;;;;;;;;4917944;29;20571;-80
2022/01/12 12:03:41;;;;;;;6.03;4.70;;;;;;;;;;4919277;29;20177;-80
2022/01/12 12:06:17;;;;;;;5.23;4.00;;;;;;;;;;4928869;23;20718;-80
2022/01/12 12:08:57;;;;;;;5.63;4.13;;;;;;;;;;4920471;29;20180;-80
2022/01/12 12:11:25;;;;;;;6.67;4.67;;;;;;;;;;4920499;29;20219;-80
2022/01/12 12:13:51;;;;;;;6.90;4.33;;;;;;;;;;4904950;29;20180;-80
2022/01/12 12:16:17;;;;;;;6.10;4.83;;;;;;;;;;4901588;29;20208;-80
2022/01/12 12:18:43;;;;;;;6.53;4.93;;;;;;;;;;4917117;29;20270;-80
2022/01/12 12:21:09;;;;;;;5.63;4.50;;;;;;;;;;4901419;29;20210;-80
2022/01/12 12:23:35;;;;;;;6.77;4.60;;;;;;;;;;4901357;29;20641;-81
2022/01/12 12:26:08;;;;;;;6.80;4.97;;;;;;;;;;4917303;29;20202;-80
2022/01/12 12:28:34;;;;;;;6.80;4.30;;;;;;;;;;4918235;29;20553;-80
2022/01/12 12:31:00;;;;;;;5.70;4.53;;;;;;;;;;4917079;29;20202;-80
2022/01/12 12:33:26;;;;;;;7.00;5.13;;;;;;;;;;4901231;29;20186;-80
2022/01/12 12:35:52;;;;;;;7.27;5.93;;;;;;;;;;4916789;29;20202;-80
2022/01/12 12:38:21;;;;;;;7.30;5.37;;;;;;;;;;4916787;29;20194;-80
2022/01/12 12:40:53;;;;;;;7.90;5.47;;;;;;;;;;4917071;29;20209;-80
2022/01/12 12:43:24;;;;;;;7.20;5.80;;;;;;;;;;4901443;29;20272;-80
2022/01/12 12:45:56;;;;;;;6.50;4.90;;;;;;;;;;4901674;29;20248;-80
2022/01/12 12:48:28;;;;;;;7.13;5.10;;;;;;;;;;4916841;29;20185;-80
2022/01/12 12:50:59;;;;;;;7.17;5.30;;;;;;;;;;4917664;29;20260;-80
2022/01/12 12:53:28;;;;;;;6.90;4.90;;;;;;;;;;4916663;29;20181;-80
2022/01/12 12:55:54;;;;;;;6.83;4.93;;;;;;;;;;4916553;29;20208;-80
2022/01/12 12:58:21;;;;;;;5.57;4.80;;;;;;;;;;4900485;29;20272;-80
2022/01/12 13:00:47;;;;;;;7.07;5.33;;;;;;;;;;4916873;29;20181;-80
2022/01/12 13:03:13;;;;;;;6.10;4.80;;;;;;;;;;4900725;29;20288;-80
2022/01/12 13:05:42;;;;;;;7.63;5.13;;;;;;;;;;4900552;29;20253;-80
2022/01/12 13:08:09;;;;;;;5.70;4.70;;;;;;;;;;4915982;29;20708;-80
2022/01/12 13:10:35;;;;;;;7.33;5.00;;;;;;;;;;4900755;29;20268;-80
2022/01/12 13:13:04;;;;;;;7.43;4.97;;;;;;;;;;4900763;29;20627;-80
2022/01/12 13:15:32;;;;;;;6.83;4.90;;;;;;;;;;4900402;29;20210;-80
2022/01/12 13:18:05;;;;;;;6.30;4.50;;;;;;;;;;4900924;29;20197;-80
2022/01/12 13:23:18;;;;;;;7.07;4.77;;;;;;;;;;4917587;29;20282;-80
2022/01/12 13:25:44;;;;;;;7.10;5.27;;;;;;;;;;4915789;29;20205;-80
2022/01/12 13:28:11;;;;;;;7.40;5.13;;;;;;;;;;4900085;29;20196;-80
2022/01/12 13:30:46;;;;;;;6.60;4.80;;;;;;;;;;4900234;29;20242;-80
2022/01/12 13:33:12;;;;;;;6.90;5.27;;;;;;;;;;4915903;29;20205;-80
2022/01/12 13:35:38;;;;;;;6.50;4.63;;;;;;;;;;4900236;29;20229;-80
2022/01/12 13:38:05;;;;;;;10.77;5.80;;;;;;;;;;4899972;29;20178;-80
2022/01/12 13:40:34;;;;;;;7.67;5.17;;;;;;;;;;4915618;29;20233;-80
2022/01/12 13:43:02;;;;;;;8.83;5.63;;;;;;;;;;4915803;29;20186;-81
2022/01/12 13:45:37;;;;;;;6.90;5.23;;;;;;;;;;4899970;29;20206;-80
2022/01/12 13:48:11;;;;;;;5.63;4.90;;;;;;;;;;4915701;29;20181;-80
2022/01/12 13:50:37;;;;;;;9.03;5.63;;;;;;;;;;4915815;29;20343;-80
2022/01/12 13:53:04;;;;;;;6.20;4.70;;;;;;;;;;4899914;29;20183;-80
2022/01/12 13:55:31;;;;;;;6.20;4.90;;;;;;;;;;4899855;29;20615;-80
2022/01/12 13:58:05;;;;;;;6.07;4.33;;;;;;;;;;4900245;29;20186;-80
2022/01/12 14:00:31;;;;;;;6.43;4.90;;;;;;;;;;4915283;29;20268;-80
2022/01/12 14:02:58;;;;;;;7.40;4.93;;;;;;;;;;4915559;29;20237;-80
2022/01/12 14:05:37;;;;;;;7.43;5.27;;;;;;;;;;4916478;29;20277;-80
2022/01/12 14:08:05;;;;;;;6.40;4.63;;;;;;;;;;4915603;29;20173;-80
2022/01/12 14:10:32;;;;;;;5.27;4.37;;;;;;;;;;4915343;29;20213;-80
2022/01/12 14:12:58;;;;;;;8.03;5.27;;;;;;;;;;4915271;29;20184;-80
2022/01/12 14:15:28;;;;;;;7.50;4.80;;;;;;;;;;4914997;29;20239;-80
2022/01/12 14:17:54;;;;;;;6.40;4.50;;;;;;;;;;4915527;29;20179;-80
2022/01/12 14:20:28;;;;;;;6.73;4.40;;;;;;;;;;4914515;29;20556;-80
2022/01/12 14:22:55;;;;;;;8.53;4.83;;;;;;;;;;4915200;29;20183;-80
2022/01/12 14:25:33;;;;;;;5.70;4.50;;;;;;;;;;4914937;29;20204;-80
2022/01/12 14:28:00;;;;;;;7.07;4.80;;;;;;;;;;4915210;29;20573;-80
2022/01/12 14:30:26;;;;;;;28.87;13.13;;;;;;;;;;4914980;29;20356;-80
2022/01/12 14:32:52;;;;;;;25.67;13.83;;;;;;;;;;4915334;29;20185;-80
2022/01/12 14:35:21;;;;;;;10.83;7.40;;;;;;;;;;4914920;29;20236;-80
2022/01/12 14:37:47;;;;;;;7.77;6.20;;;;;;;;;;4915016;29;20190;-80
2022/01/12 14:40:13;;;;;;;7.23;5.33;;;;;;;;;;4915032;29;20181;-80
2022/01/12 14:42:44;;;;;;;7.07;5.07;;;;;;;;;;4899396;29;20742;-80
2022/01/12 14:45:11;;;;;;;8.43;5.57;;;;;;;;;;4916117;29;20242;-80
2022/01/12 14:47:37;;;;;;;8.77;6.67;;;;;;;;;;4915178;29;20246;-80
2022/01/12 14:50:04;;;;;;;7.57;5.27;;;;;;;;;;4899545;29;20237;-80
2022/01/12 14:52:30;;;;;;;9.10;5.20;;;;;;;;;;4915123;29;20186;-80
2022/01/12 14:54:56;;;;;;;7.40;5.27;;;;;;;;;;4899022;29;20209;-80
2022/01/12 14:57:22;;;;;;;7.73;5.13;;;;;;;;;;4899564;29;20187;-80
2022/01/12 14:59:48;;;;;;;6.10;4.40;;;;;;;;;;4899746;29;20725;-80
2022/01/12 15:02:14;;;;;;;7.80;4.80;;;;;;;;;;4900331;29;20182;-80
2022/01/12 15:04:40;;;;;;;6.70;4.80;;;;;;;;;;4899721;29;20265;-80
2022/01/12 15:07:06;;;;;;;7.13;4.80;;;;;;;;;;4900689;29;20201;-80
2022/01/12 15:09:34;;;;;;;7.00;5.53;;;;;;;;;;4899785;29;20190;-80
2022/01/12 15:12:00;;;;;;;7.57;5.37;;;;;;;;;;4900372;29;20228;-80
2022/01/12 15:14:42;;;;;;;6.47;5.03;;;;;;;;;;4899585;29;20182;-80
2022/01/12 15:17:08;;;;;;;6.33;4.87;;;;;;;;;;4915994;29;20183;-80
2022/01/12 15:19:34;;;;;;;8.50;5.30;;;;;;;;;;4899902;29;20185;-80
2022/01/12 15:22:00;;;;;;;8.43;5.00;;;;;;;;;;4915677;29;20185;-80
2022/01/12 15:24:27;;;;;;;8.43;5.97;;;;;;;;;;4916575;29;20208;-80
2022/01/12 15:26:53;;;;;;;8.33;5.63;;;;;;;;;;4899247;29;20217;-80
2022/01/12 15:29:19;;;;;;;7.33;5.47;;;;;;;;;;4914541;29;20178;-80
2022/01/12 15:31:45;;;;;;;7.87;5.07;;;;;;;;;;4917667;29;20300;-80
2022/01/12 15:34:11;;;;;;;7.13;5.00;;;;;;;;;;4902261;29;20269;-81
2022/01/12 15:36:37;;;;;;;6.43;4.93;;;;;;;;;;4902433;29;20199;-80
2022/01/12 15:39:06;;;;;;;7.90;5.00;;;;;;;;;;4918231;29;20253;-80
2022/01/12 15:41:32;;;;;;;7.93;5.60;;;;;;;;;;4917855;29;20193;-80
2022/01/12 15:43:58;;;;;;;9.60;6.97;;;;;;;;;;4902605;29;20191;-80
2022/01/12 15:46:24;;;;;;;7.27;5.47;;;;;;;;;;4917998;29;20210;-80
2022/01/12 15:48:51;;;;;;;8.43;5.77;;;;;;;;;;4917884;29;20595;-80
2022/01/12 15:51:17;;;;;;;7.90;5.50;;;;;;;;;;4918001;29;20258;-80
2022/01/12 15:53:43;;;;;;;8.13;5.53;;;;;;;;;;4902001;29;20194;-80
2022/01/12 15:56:09;;;;;;;7.27;5.10;;;;;;;;;;4902096;29;20209;-80
2022/01/12 15:58:35;;;;;;;6.60;5.10;;;;;;;;;;4917594;29;20181;-80
2022/01/12 16:01:04;;;;;;;5.77;4.67;;;;;;;;;;4918079;29;20250;-80
2022/01/12 16:03:30;;;;;;;5.90;4.53;;;;;;;;;;4902298;29;20191;-80
2022/01/12 16:05:56;;;;;;;4.80;4.13;;;;;;;;;;4901691;29;20252;-80
2022/01/12 16:08:22;;;;;;;6.03;4.10;;;;;;;;;;4917785;29;20196;-77
2022/01/12 16:10:49;;;;;;;6.33;4.53;;;;;;;;;;4901353;29;20256;-77
2022/01/12 16:13:17;;;;;;;6.70;4.30;;;;;;;;;;4901361;29;20193;-77
2022/01/12 16:15:43;;;;;;;7.37;4.47;;;;;;;;;;4901398;29;20368;-78
2022/01/12 16:18:09;;;;;;;6.63;4.47;;;;;;;;;;4901181;29;20197;-77
2022/01/12 16:20:35;;;;;;;5.80;4.23;;;;;;;;;;4916894;29;20183;-77